createdAt,value
2023-01-20T00:03:45.913Z,99207.22
2023-01-20T00:07:49.267Z,99199.47
2023-01-20T00:11:52.474Z,99190.72
2023-01-20T00:15:55.504Z,99184.66
2023-01-20T00:19:59.897Z,99189.84
2023-01-20T00:24:03.010Z,99189.81
2023-01-20T00:28:06.480Z,99204.44
2023-01-20T00:32:09.562Z,99218.41
2023-01-20T00:36:15.159Z,99227.22
2023-01-20T00:40:23.310Z,99223.72
2023-01-20T00:44:27.432Z,99225.56
2023-01-20T00:48:30.965Z,99234.25
2023-01-20T00:52:35.350Z,99242.03
2023-01-20T00:56:38.324Z,99249.81
2023-01-20T01:00:41.465Z,99263.63
2023-01-20T01:04:44.655Z,99274.81
2023-01-20T01:08:49.258Z,99279.88
2023-01-20T01:12:52.513Z,99278.03
2023-01-20T01:16:57.422Z,99284.88
2023-01-20T01:21:00.571Z,99300.28
2023-01-20T01:25:05.428Z,99293.19
2023-01-20T01:29:08.469Z,99282.00
2023-01-20T01:33:11.487Z,99270.63
2023-01-20T01:37:14.511Z,99241.94
2023-01-20T01:41:19.457Z,99232.97
2023-01-20T01:45:25.969Z,99240.50
2023-01-20T01:49:32.664Z,99253.41
2023-01-20T01:53:41.443Z,99241.31
2023-01-20T01:57:46.828Z,99234.47
2023-01-20T02:01:52.204Z,99239.63
2023-01-20T02:05:56.878Z,99243.91
2023-01-20T02:10:00.794Z,99239.63
2023-01-20T02:14:05.663Z,99239.63
2023-01-20T02:18:22.080Z,99241.38
2023-01-20T02:22:37.112Z,99239.63
2023-01-20T02:27:01.696Z,99227.41
2023-01-20T02:31:36.063Z,99231.53
2023-01-20T02:35:43.865Z,99243.44
2023-01-20T02:39:57.153Z,99233.84
2023-01-20T02:44:08.139Z,99243.78
2023-01-20T02:48:19.972Z,99241.88
2023-01-20T02:52:27.978Z,99239.91
2023-01-20T02:56:33.540Z,99243.34
2023-01-20T03:00:41.104Z,99250.28
2023-01-20T03:04:49.568Z,99251.13
2023-01-20T03:08:57.008Z,99253.69
2023-01-20T03:13:04.156Z,99251.94
2023-01-20T03:17:07.375Z,99248.41
2023-01-20T03:21:11.854Z,99251.19
2023-01-20T03:25:17.441Z,99241.56
2023-01-20T03:29:20.451Z,99238.00
2023-01-20T03:33:23.950Z,99227.41
2023-01-20T03:37:27.052Z,99220.31
2023-01-20T03:41:42.218Z,99228.69
2023-01-20T03:45:56.354Z,99219.91
2023-01-20T03:50:10.141Z,99223.09
2023-01-20T03:54:20.440Z,99218.66
2023-01-20T03:58:29.034Z,99224.47
2023-01-20T04:02:34.390Z,99214.94
2023-01-20T04:06:39.247Z,99216.50
2023-01-20T04:10:44.625Z,99215.63
2023-01-20T04:14:49.022Z,99221.78
2023-01-20T04:18:53.162Z,99222.53
2023-01-20T04:23:00.246Z,99236.41
2023-01-20T04:27:03.292Z,99244.22
2023-01-20T04:31:11.361Z,99265.91
2023-01-20T04:35:21.652Z,99278.97
2023-01-20T04:39:24.641Z,99291.09
2023-01-20T04:43:27.666Z,99278.22
2023-01-20T04:47:33.802Z,99280.00
2023-01-20T04:51:36.890Z,99282.78
2023-01-20T04:55:40.114Z,99300.94
2023-01-20T04:59:43.419Z,99316.47
2023-01-20T05:03:47.924Z,99327.63
2023-01-20T05:07:53.526Z,99328.34
2023-01-20T05:11:56.511Z,99338.47
2023-01-20T05:16:02.604Z,99351.25
2023-01-20T05:20:08.155Z,99353.72
2023-01-20T05:24:11.258Z,99347.63
2023-01-20T05:28:14.260Z,99350.13
2023-01-20T05:32:17.288Z,99346.47
2023-01-20T05:36:21.729Z,99353.16
2023-01-20T05:40:24.921Z,99354.78
2023-01-20T05:44:27.983Z,99351.50
2023-01-20T05:48:31.360Z,99358.44
2023-01-20T05:52:35.845Z,99361.00
2023-01-20T05:56:38.874Z,99367.91
2023-01-20T06:00:42.062Z,99367.16
2023-01-20T06:04:45.076Z,99362.72
2023-01-20T06:08:49.672Z,99354.91
2023-01-20T06:12:53.190Z,99355.84
2023-01-20T06:16:56.249Z,99356.69
2023-01-20T06:20:59.903Z,99354.16
2023-01-20T06:25:04.984Z,99342.09
2023-01-20T06:29:08.026Z,99337.75
2023-01-20T06:38:17.284Z,99348.00
2023-01-20T06:42:24.055Z,99343.69
2023-01-20T06:46:30.480Z,99351.56
2023-01-20T06:50:33.963Z,99355.03
2023-01-20T06:54:36.894Z,99355.22
2023-01-20T06:58:41.639Z,99352.72
2023-01-20T07:02:44.955Z,99350.34
2023-01-20T07:06:47.942Z,99347.88
2023-01-20T07:10:50.867Z,99360.81
2023-01-20T07:14:55.203Z,99353.84
2023-01-20T07:18:58.509Z,99360.94
2023-01-20T07:23:01.948Z,99347.88
2023-01-20T07:27:05.030Z,99355.75
2023-01-20T07:31:11.218Z,99356.63
2023-01-20T07:35:14.429Z,99361.81
2023-01-20T07:39:20.136Z,99366.09
2023-01-20T07:43:23.096Z,99363.78
2023-01-20T07:47:27.617Z,99382.22
2023-01-20T07:51:30.639Z,99367.50
2023-01-20T07:55:34.311Z,99373.50
2023-01-20T07:59:37.225Z,99386.44
2023-01-20T08:03:42.407Z,99392.44
2023-01-20T08:07:45.578Z,99408.97
2023-01-20T08:11:48.541Z,99411.03
2023-01-20T08:15:51.537Z,99418.00
2023-01-20T08:19:55.807Z,99417.38
2023-01-20T08:24:00.357Z,99405.25
2023-01-20T08:28:05.427Z,99412.31
2023-01-20T08:32:08.482Z,99421.84
2023-01-20T08:36:15.867Z,99426.31
2023-01-20T08:40:19.146Z,99442.84
2023-01-20T08:44:22.208Z,99437.72
2023-01-20T08:48:25.119Z,99446.06
2023-01-20T08:52:29.542Z,99443.78
2023-01-20T08:56:34.097Z,99459.13
2023-01-20T09:00:37.065Z,99461.84
2023-01-20T09:04:40.216Z,99470.56
2023-01-20T09:08:45.092Z,99476.84
2023-01-20T09:12:48.631Z,99466.56
2023-01-20T09:16:52.105Z,99457.34
2023-01-20T09:20:55.086Z,99463.47
2023-01-20T09:25:00.389Z,99463.19
2023-01-20T09:29:10.215Z,99465.53
2023-01-20T09:33:14.107Z,99466.41
2023-01-20T09:37:34.665Z,99470.19
2023-01-20T09:41:56.519Z,99477.13
2023-01-20T09:46:09.512Z,99479.84
2023-01-20T09:50:50.857Z,99486.84
2023-01-20T09:54:59.808Z,99491.31
2023-01-20T09:59:09.612Z,99481.84
2023-01-20T10:03:17.418Z,99475.91
2023-01-20T10:07:29.898Z,99482.16
2023-01-20T10:11:39.082Z,99474.31
2023-01-20T10:15:48.284Z,99477.69
2023-01-20T10:19:58.930Z,99468.25
2023-01-20T10:24:08.606Z,99476.41
2023-01-20T10:28:15.215Z,99466.09
2023-01-20T10:32:25.987Z,99464.59
2023-01-20T10:36:31.328Z,99457.19
2023-01-20T10:40:42.245Z,99451.53
2023-01-20T10:44:48.147Z,99448.31
2023-01-20T10:49:17.959Z,99443.31
2023-01-20T10:53:45.985Z,99440.09
2023-01-20T10:57:53.044Z,99440.28
2023-01-20T11:02:11.848Z,99433.44
2023-01-20T11:06:20.681Z,99428.25
2023-01-20T11:10:27.130Z,99419.72
2023-01-20T11:14:30.784Z,99410.41
2023-01-20T11:18:34.100Z,99411.38
2023-01-20T11:22:39.147Z,99402.84
2023-01-20T11:26:42.109Z,99405.69
2023-01-20T11:30:52.259Z,99411.06
2023-01-20T11:34:55.370Z,99415.19
2023-01-20T11:38:59.674Z,99409.81
2023-01-20T11:43:02.617Z,99415.13
2023-01-20T11:47:17.826Z,99406.56
2023-01-20T11:51:25.306Z,99402.41
2023-01-20T11:55:29.759Z,99403.41
2023-01-20T11:59:35.793Z,99403.53
2023-01-20T12:04:14.391Z,99386.97
2023-01-20T12:08:22.271Z,99385.25
2023-01-20T12:12:33.752Z,99389.63
2023-01-20T12:16:40.426Z,99399.91
2023-01-20T12:20:54.905Z,99406.84
2023-01-20T12:25:10.314Z,99411.38
2023-01-20T12:29:22.478Z,99427.91
2023-01-20T12:33:28.037Z,99416.13
2023-01-20T12:37:39.341Z,99411.13
2023-01-20T12:42:01.203Z,99413.75
2023-01-20T12:46:27.113Z,99400.81
2023-01-20T12:50:43.307Z,99412.03
2023-01-20T12:54:57.476Z,99404.22
2023-01-20T12:59:07.785Z,99395.53
2023-01-20T13:03:49.501Z,99390.22
2023-01-20T13:08:06.557Z,99405.81
2023-01-20T13:12:32.662Z,99401.53
2023-01-20T13:16:42.706Z,99398.13
2023-01-20T13:20:47.848Z,99404.19
2023-01-20T13:24:53.469Z,99409.34
2023-01-20T13:28:57.906Z,99410.22
2023-01-20T13:33:07.783Z,99422.38
2023-01-20T13:37:27.348Z,99418.03
2023-01-20T13:41:50.083Z,99424.16
2023-01-20T13:46:33.670Z,99425.03
2023-01-20T13:50:39.341Z,99425.94
2023-01-20T13:54:44.806Z,99431.19
2023-01-20T13:58:47.736Z,99437.25
2023-01-20T14:02:53.088Z,99432.16
2023-01-20T14:06:57.542Z,99442.78
2023-01-20T14:11:12.985Z,99439.28
2023-01-20T14:15:33.258Z,99442.06
2023-01-20T14:19:37.087Z,99441.16
2023-01-20T14:23:46.076Z,99456.81
2023-01-20T14:27:48.999Z,99454.22
2023-01-20T14:31:51.953Z,99450.75
2023-01-20T14:35:54.879Z,99440.34
2023-01-20T14:40:01.877Z,99446.38
2023-01-20T14:44:16.552Z,99446.34
2023-01-20T14:48:33.394Z,99452.47
2023-01-20T14:52:37.821Z,99455.16
2023-01-20T14:56:48.545Z,99458.50
2023-01-20T15:00:52.563Z,99465.38
2023-01-20T15:04:56.523Z,99472.97
2023-01-20T15:09:06.606Z,99475.41
2023-01-20T15:13:25.243Z,99483.16
2023-01-20T15:17:28.222Z,99482.28
2023-01-20T15:21:31.465Z,99490.03
2023-01-20T15:25:38.112Z,99495.16
2023-01-20T15:29:42.493Z,99512.56
2023-01-20T15:33:45.659Z,99516.78
2023-01-20T15:37:48.590Z,99518.34
2023-01-20T15:41:54.854Z,99521.03
2023-01-20T15:46:04.262Z,99531.44
2023-01-20T15:50:13.896Z,99535.81
2023-01-20T15:54:16.941Z,99536.63
2023-01-20T15:58:26.097Z,99535.72
2023-01-20T16:02:30.439Z,99545.19
2023-01-20T16:06:35.054Z,99544.31
2023-01-20T16:10:38.137Z,99555.53
2023-01-20T16:14:41.291Z,99555.09
2023-01-20T16:18:45.887Z,99557.63
2023-01-20T16:22:49.004Z,99566.06
2023-01-20T16:26:51.947Z,99570.41
2023-01-20T16:30:57.662Z,99565.09
2023-01-20T16:35:02.010Z,99569.38
2023-01-20T16:39:05.070Z,99567.63
2023-01-20T16:43:07.997Z,99561.47
2023-01-20T16:47:10.920Z,99569.25
2023-01-20T16:51:16.769Z,99568.41
2023-01-20T16:55:20.172Z,99568.34
2023-01-20T16:59:23.113Z,99554.44
2023-01-20T17:03:27.386Z,99559.63
2023-01-20T17:07:31.719Z,99557.03
2023-01-20T17:11:36.593Z,99552.66
2023-01-20T17:15:42.598Z,99560.50
2023-01-20T17:19:45.560Z,99572.50
2023-01-20T17:23:52.607Z,99577.75
2023-01-20T17:27:55.553Z,99577.91
2023-01-20T17:31:58.531Z,99586.53
2023-01-20T17:36:03.171Z,99585.59
2023-01-20T17:40:08.765Z,99590.97
2023-01-20T17:44:13.404Z,99590.91
2023-01-20T17:48:16.312Z,99588.47
2023-01-20T17:52:20.188Z,99584.16
2023-01-20T17:56:24.561Z,99585.81
2023-01-20T18:00:27.618Z,99586.63
2023-01-20T18:04:30.585Z,99590.03
2023-01-20T18:08:33.525Z,99584.84
2023-01-20T18:12:37.954Z,99590.81
2023-01-20T18:16:42.127Z,99588.09
2023-01-20T18:20:45.086Z,99584.78
2023-01-20T18:24:48.212Z,99596.81
2023-01-20T18:28:55.114Z,99585.50
2023-01-20T18:32:58.089Z,99594.03
2023-01-20T18:37:01.361Z,99583.75
2023-01-20T18:41:04.361Z,99587.16
2023-01-20T18:45:10.060Z,99587.06
2023-01-20T18:49:14.521Z,99602.66
2023-01-20T18:53:17.465Z,99595.72
2023-01-20T18:57:20.491Z,99590.50
2023-01-20T19:01:26.509Z,99595.81
2023-01-20T19:05:29.455Z,99587.16
2023-01-20T19:09:32.332Z,99583.53
2023-01-20T19:13:35.523Z,99583.53
2023-01-20T19:17:39.791Z,99585.31
2023-01-20T19:21:42.949Z,99587.97
2023-01-20T19:25:45.881Z,99584.41
2023-01-20T19:29:49.500Z,99585.22
2023-01-20T19:33:55.832Z,99587.00
2023-01-20T19:37:59.213Z,99576.50
2023-01-20T19:42:02.144Z,99585.97
2023-01-20T19:46:07.028Z,99590.28
2023-01-20T19:50:12.435Z,99586.88
2023-01-20T19:54:15.466Z,99590.19
2023-01-20T19:58:18.350Z,99594.44
2023-01-20T20:02:21.766Z,99587.59
2023-01-20T20:06:29.640Z,99588.44
2023-01-20T20:10:32.576Z,99591.09
2023-01-20T20:14:35.862Z,99592.75
2023-01-20T20:18:38.871Z,99597.91
2023-01-20T20:22:43.493Z,99606.50
2023-01-20T20:26:47.571Z,99616.03
2023-01-20T20:30:50.726Z,99622.81
2023-01-20T20:34:53.952Z,99628.78
2023-01-20T20:38:58.835Z,99627.97
2023-01-20T20:43:01.860Z,99630.44
2023-01-20T20:47:04.945Z,99614.00
2023-01-20T20:51:09.087Z,99620.00
2023-01-20T20:55:13.723Z,99625.94
2023-01-20T20:59:16.693Z,99638.78
2023-01-20T21:03:19.705Z,99642.25
2023-01-20T21:07:22.685Z,99650.84
2023-01-20T21:11:27.520Z,99649.78
2023-01-20T21:15:30.906Z,99667.84
2023-01-20T21:19:33.812Z,99664.44
2023-01-20T21:23:36.900Z,99673.16
2023-01-20T21:27:41.156Z,99668.78
2023-01-20T21:31:44.227Z,99679.03
2023-01-20T21:35:47.718Z,99679.16
2023-01-20T21:39:50.614Z,99672.09
2023-01-20T21:44:12.456Z,99674.59
2023-01-20T21:48:29.253Z,99670.25
2023-01-20T21:52:45.311Z,99678.78
2023-01-20T21:56:49.173Z,99690.03
2023-01-20T22:00:57.050Z,99686.38
2023-01-20T22:05:00.037Z,99701.81
2023-01-20T22:09:04.007Z,99698.09
2023-01-20T22:13:07.989Z,99696.22
2023-01-20T22:17:14.050Z,99696.16
2023-01-20T22:21:18.496Z,99694.91
2023-01-20T22:25:22.957Z,99683.59
2023-01-20T22:29:26.921Z,99685.03
2023-01-20T22:33:31.793Z,99682.09
2023-01-20T22:37:36.572Z,99673.25
2023-01-20T22:41:40.572Z,99672.25
2023-01-20T22:45:48.519Z,99665.16
2023-01-20T22:49:54.767Z,99652.97
2023-01-20T22:53:59.463Z,99661.34
2023-01-20T22:58:02.348Z,99655.31
2023-01-20T23:02:05.263Z,99650.03
2023-01-20T23:06:10.783Z,99663.69
2023-01-20T23:10:34.397Z,99658.38
2023-01-20T23:14:54.119Z,99677.34
2023-01-20T23:18:57.152Z,99674.63
2023-01-20T23:23:01.438Z,99666.78
2023-01-20T23:27:04.412Z,99656.38
2023-01-20T23:31:10.338Z,99653.84
2023-01-20T23:35:13.242Z,99658.03
2023-01-20T23:39:17.808Z,99650.25
2023-01-20T23:43:20.698Z,99643.28
2023-01-20T23:47:24.366Z,99648.38
2023-01-20T23:51:27.299Z,99657.88
2023-01-20T23:55:31.682Z,99639.81
2023-01-20T23:59:34.592Z,99661.19
